createdAt,value
2018-01-28T00:00:02.967Z,79.60
2018-01-28T00:02:30.571Z,80.00
2018-01-28T00:04:58.186Z,80.50
2018-01-28T00:07:25.777Z,80.90
2018-01-28T00:09:53.409Z,82.60
2018-01-28T00:12:21.060Z,82.30
2018-01-28T00:14:48.670Z,82.30
2018-01-28T00:17:16.380Z,82.00
2018-01-28T00:19:43.957Z,82.10
2018-01-28T00:22:18.411Z,82.40
2018-01-28T00:24:46.075Z,82.80
2018-01-28T00:27:13.663Z,82.80
2018-01-28T00:29:41.283Z,83.00
2018-01-28T00:32:09.731Z,83.00
2018-01-28T00:34:37.344Z,82.80
2018-01-28T00:37:04.954Z,83.10
2018-01-28T00:39:32.537Z,83.70
2018-01-28T00:42:00.967Z,84.00
2018-01-28T00:44:28.581Z,84.00
2018-01-28T00:46:56.224Z,84.70
2018-01-28T00:49:23.813Z,84.80
2018-01-28T00:51:51.444Z,85.60
2018-01-28T00:54:19.081Z,86.60
2018-01-28T00:56:46.727Z,87.00
2018-01-28T00:59:14.331Z,87.30
2018-01-28T01:01:41.918Z,87.40
2018-01-28T01:04:09.515Z,87.50
2018-01-28T01:06:37.124Z,88.00
2018-01-28T01:09:05.473Z,86.90
2018-01-28T01:11:33.134Z,86.70
2018-01-28T01:14:00.805Z,86.60
2018-01-28T01:16:28.363Z,86.80
2018-01-28T01:18:55.966Z,86.70
2018-01-28T01:21:23.550Z,87.30
2018-01-28T01:23:51.194Z,86.90
2018-01-28T01:26:18.789Z,86.70
2018-01-28T01:28:46.423Z,86.10
2018-01-28T01:31:14.096Z,85.80
2018-01-28T01:33:41.711Z,85.90
2018-01-28T01:36:10.083Z,86.10
2018-01-28T01:38:38.454Z,86.10
2018-01-28T01:41:06.073Z,86.00
2018-01-28T01:43:33.679Z,86.50
2018-01-28T01:46:02.028Z,85.70
2018-01-28T01:48:29.657Z,85.70
2018-01-28T01:50:57.238Z,86.70
2018-01-28T01:53:24.858Z,87.40
2018-01-28T01:55:52.422Z,87.70
2018-01-28T01:58:20.020Z,87.70
2018-01-28T02:00:47.635Z,87.80
2018-01-28T02:03:16.022Z,88.40
2018-01-28T02:05:43.639Z,88.30
2018-01-28T02:08:11.253Z,87.90
2018-01-28T02:10:38.795Z,88.50
2018-01-28T02:13:06.419Z,88.80
2018-01-28T02:15:34.030Z,88.80
2018-01-28T02:18:01.618Z,89.10
2018-01-28T02:20:29.206Z,89.00
2018-01-28T02:22:56.795Z,90.30
2018-01-28T02:25:24.366Z,90.50
2018-01-28T02:27:51.951Z,90.30
2018-01-28T02:30:19.596Z,90.20
2018-01-28T02:32:47.197Z,90.10
2018-01-28T02:35:14.833Z,90.30
2018-01-28T02:37:42.437Z,90.20
2018-01-28T02:40:10.043Z,89.40
2018-01-28T02:42:37.682Z,88.00
2018-01-28T02:45:06.023Z,87.50
2018-01-28T02:47:33.626Z,87.50
2018-01-28T02:50:01.241Z,87.20
2018-01-28T02:52:28.827Z,86.30
2018-01-28T02:54:57.182Z,86.00
2018-01-28T02:57:24.831Z,85.90
2018-01-28T02:59:52.463Z,84.60
2018-01-28T03:02:20.072Z,84.10
2018-01-28T03:04:47.666Z,83.80
2018-01-28T03:07:15.279Z,83.20
2018-01-28T03:09:42.914Z,83.30
2018-01-28T03:12:10.589Z,82.60
2018-01-28T03:14:38.185Z,82.70
2018-01-28T03:17:05.800Z,82.00
2018-01-28T03:19:33.438Z,81.50
2018-01-28T03:22:01.040Z,80.90
2018-01-28T03:24:28.667Z,80.30
2018-01-28T03:26:56.292Z,80.30
2018-01-28T03:29:24.673Z,78.70
2018-01-28T03:31:53.035Z,78.30
2018-01-28T03:34:20.623Z,78.30
2018-01-28T03:36:48.227Z,77.50
2018-01-28T03:39:15.848Z,77.60
2018-01-28T03:41:43.476Z,77.40
2018-01-28T03:44:11.072Z,76.90
2018-01-28T03:46:38.677Z,76.70
2018-01-28T03:49:06.361Z,76.20
2018-01-28T03:51:33.957Z,76.00
2018-01-28T03:54:01.570Z,75.70
2018-01-28T03:56:29.148Z,76.40
2018-01-28T03:58:57.524Z,75.40
2018-01-28T04:01:25.120Z,75.20
2018-01-28T04:03:52.724Z,75.30
2018-01-28T04:06:20.350Z,75.00
2018-01-28T04:08:47.944Z,75.50
2018-01-28T04:11:15.575Z,76.10
2018-01-28T04:13:43.237Z,76.40
2018-01-28T04:16:10.823Z,77.30
2018-01-28T04:18:38.432Z,77.70
2018-01-28T04:21:06.028Z,78.30
2018-01-28T04:23:33.650Z,78.60
2018-01-28T04:26:01.279Z,78.80
2018-01-28T04:28:28.876Z,78.90
2018-01-28T04:30:56.475Z,78.70
2018-01-28T04:33:24.053Z,79.70
2018-01-28T04:35:51.630Z,78.30
2018-01-28T04:38:20.001Z,77.70
2018-01-28T04:40:47.576Z,77.60
2018-01-28T04:43:15.984Z,78.80
2018-01-28T04:45:43.587Z,78.60
2018-01-28T04:48:11.215Z,77.70
2018-01-28T04:50:38.832Z,77.40
2018-01-28T04:53:07.254Z,76.60
2018-01-28T04:55:34.877Z,76.60
2018-01-28T04:58:03.277Z,76.80
2018-01-28T05:00:40.791Z,76.70
2018-01-28T05:03:08.414Z,75.90
2018-01-28T05:05:36.829Z,75.10
2018-01-28T05:08:04.450Z,75.00
2018-01-28T05:10:32.869Z,74.10
2018-01-28T05:13:01.335Z,74.00
2018-01-28T05:15:28.924Z,73.90
2018-01-28T05:17:56.518Z,73.50
2018-01-28T05:20:24.150Z,73.40
2018-01-28T05:22:51.771Z,73.60
2018-01-28T05:25:19.375Z,73.80
2018-01-28T05:27:46.956Z,74.30
2018-01-28T05:30:14.588Z,73.60
2018-01-28T05:32:42.190Z,74.30
2018-01-28T05:35:10.571Z,73.80
2018-01-28T05:37:38.178Z,73.70
2018-01-28T05:40:05.815Z,73.50
2018-01-28T05:42:33.456Z,73.60
2018-01-28T05:45:01.848Z,73.30
2018-01-28T05:47:29.452Z,73.40
2018-01-28T05:49:57.043Z,74.40
2018-01-28T05:52:24.670Z,74.00
2018-01-28T05:54:52.259Z,74.30
2018-01-28T05:57:19.851Z,74.40
2018-01-28T05:59:47.408Z,74.40
2018-01-28T06:02:26.980Z,75.00
2018-01-28T06:05:07.224Z,75.20
2018-01-28T06:07:41.427Z,75.30
2018-01-28T06:10:08.979Z,75.80
2018-01-28T06:12:36.564Z,76.00
2018-01-28T06:15:04.220Z,75.50
2018-01-28T06:17:33.811Z,74.90
2018-01-28T06:20:01.447Z,74.80
2018-01-28T06:22:29.793Z,74.10
2018-01-28T06:24:57.373Z,74.10
2018-01-28T06:27:25.011Z,74.60
2018-01-28T06:29:52.601Z,74.60
2018-01-28T06:32:25.140Z,74.50
2018-01-28T06:34:52.749Z,74.50
2018-01-28T06:37:21.058Z,74.40
2018-01-28T06:39:48.686Z,74.30
2018-01-28T06:42:17.091Z,73.20
2018-01-28T06:44:44.683Z,73.20
2018-01-28T06:47:12.320Z,72.30
2018-01-28T06:49:40.735Z,70.70
2018-01-28T06:52:08.362Z,70.80
2018-01-28T06:54:35.931Z,71.60
2018-01-28T06:57:03.515Z,71.30
2018-01-28T06:59:31.087Z,70.80
2018-01-28T07:02:01.893Z,68.70
2018-01-28T07:04:29.452Z,69.30
2018-01-28T07:06:57.055Z,67.70
2018-01-28T07:09:25.454Z,67.40
2018-01-28T07:11:53.062Z,67.30
2018-01-28T07:14:20.684Z,66.30
2018-01-28T07:16:48.322Z,64.40
2018-01-28T07:19:16.677Z,62.80
2018-01-28T07:21:44.297Z,62.60
2018-01-28T07:24:11.882Z,61.00
2018-01-28T07:26:39.495Z,60.10
2018-01-28T07:29:07.082Z,61.00
2018-01-28T07:31:34.628Z,60.80
2018-01-28T07:34:02.274Z,61.50
2018-01-28T07:36:29.848Z,62.50
2018-01-28T07:38:57.462Z,62.40
2018-01-28T07:41:25.059Z,63.30
2018-01-28T07:43:52.649Z,61.90
2018-01-28T07:46:20.244Z,62.50
2018-01-28T07:48:48.712Z,62.50
2018-01-28T07:51:16.306Z,62.20
2018-01-28T07:53:43.938Z,62.60
2018-01-28T07:56:11.535Z,62.90
2018-01-28T07:58:39.113Z,62.50
2018-01-28T08:01:06.659Z,62.70
2018-01-28T08:03:34.230Z,62.90
2018-01-28T08:06:02.637Z,61.90
2018-01-28T08:08:45.098Z,61.80
2018-01-28T08:11:29.373Z,60.90
2018-01-28T08:14:11.833Z,60.00
2018-01-28T08:16:39.430Z,60.20
2018-01-28T08:19:06.979Z,60.80
2018-01-28T08:21:34.573Z,60.90
2018-01-28T08:24:02.151Z,60.70
2018-01-28T08:26:30.207Z,60.30
2018-01-28T08:28:58.354Z,60.20
2018-01-28T08:31:25.901Z,59.40
2018-01-28T08:33:53.488Z,59.80
2018-01-28T08:36:21.080Z,59.50
2018-01-28T08:38:48.694Z,59.70
2018-01-28T08:41:16.282Z,60.30
2018-01-28T08:43:43.852Z,60.50
2018-01-28T08:46:11.456Z,60.50
2018-01-28T08:48:39.049Z,60.30
2018-01-28T08:51:06.668Z,59.70
2018-01-28T08:53:34.277Z,59.50
2018-01-28T08:56:01.868Z,59.00
2018-01-28T08:58:29.500Z,59.20
2018-01-28T09:00:57.123Z,58.40
2018-01-28T09:03:24.683Z,59.00
2018-01-28T09:05:52.314Z,58.20
2018-01-28T09:11:13.830Z,58.20
2018-01-28T09:13:41.393Z,58.90
2018-01-28T09:16:09.019Z,58.20
2018-01-28T09:18:36.569Z,58.90
2018-01-28T09:21:04.166Z,58.50
2018-01-28T09:23:31.821Z,58.50
2018-01-28T09:25:59.406Z,58.90
2018-01-28T09:28:27.045Z,58.20
2018-01-28T09:30:54.595Z,57.60
2018-01-28T09:33:22.244Z,57.60
2018-01-28T09:35:49.843Z,55.90
2018-01-28T09:38:17.452Z,56.70
2018-01-28T09:40:45.008Z,56.30
2018-01-28T09:43:12.624Z,56.80
2018-01-28T09:45:40.251Z,56.40
2018-01-28T09:48:11.770Z,56.60
2018-01-28T09:50:39.346Z,55.70
2018-01-28T09:53:06.950Z,55.90
2018-01-28T09:55:34.565Z,56.20
2018-01-28T09:58:02.926Z,57.80
2018-01-28T10:00:30.567Z,57.80
2018-01-28T10:02:58.941Z,55.70
2018-01-28T10:05:27.335Z,56.50
2018-01-28T10:07:55.744Z,56.50
2018-01-28T10:10:23.367Z,56.40
2018-01-28T10:13:01.543Z,55.70
2018-01-28T10:15:29.116Z,55.50
2018-01-28T10:17:56.720Z,56.00
2018-01-28T10:20:41.603Z,55.50
2018-01-28T10:23:28.464Z,56.20
2018-01-28T10:25:56.104Z,55.50
2018-01-28T10:28:23.781Z,56.30
2018-01-28T10:30:52.083Z,54.90
2018-01-28T10:33:20.484Z,52.20
2018-01-28T10:35:48.080Z,52.20
2018-01-28T10:38:15.676Z,51.70
2018-01-28T10:40:43.997Z,51.00
2018-01-28T10:43:11.612Z,51.00
2018-01-28T10:45:39.211Z,50.40
2018-01-28T10:48:06.811Z,50.80
2018-01-28T10:50:34.375Z,49.80
2018-01-28T10:53:02.021Z,51.00
2018-01-28T10:55:29.594Z,50.80
2018-01-28T10:57:57.157Z,52.10
2018-01-28T11:00:24.753Z,52.10
2018-01-28T11:02:52.347Z,52.30
2018-01-28T11:05:19.936Z,52.70
2018-01-28T11:07:47.518Z,53.00
2018-01-28T11:10:15.219Z,53.60
2018-01-28T11:12:43.528Z,54.30
2018-01-28T11:15:11.139Z,54.20
2018-01-28T11:17:38.758Z,54.00
2018-01-28T11:20:06.326Z,54.30
2018-01-28T11:22:33.896Z,55.10
2018-01-28T11:25:02.262Z,54.10
2018-01-28T11:27:29.852Z,54.00
2018-01-28T11:29:57.415Z,54.40
2018-01-28T11:32:24.967Z,55.50
2018-01-28T11:34:52.529Z,55.40
2018-01-28T11:37:20.105Z,55.00
2018-01-28T11:39:47.652Z,55.40
2018-01-28T11:42:15.292Z,54.80
2018-01-28T11:44:43.643Z,55.00
2018-01-28T11:47:11.227Z,54.90
2018-01-28T11:49:39.593Z,56.50
2018-01-28T11:52:07.180Z,56.50
2018-01-28T11:54:34.766Z,55.60
2018-01-28T11:57:02.365Z,56.60
2018-01-28T11:59:29.941Z,55.90
2018-01-28T12:01:58.381Z,54.00
2018-01-28T12:04:25.969Z,53.90
2018-01-28T12:06:53.617Z,53.70
2018-01-28T12:09:21.224Z,54.50
2018-01-28T12:11:48.843Z,53.80
2018-01-28T12:14:16.529Z,52.40
2018-01-28T12:16:44.872Z,52.00
2018-01-28T12:19:12.541Z,52.00
2018-01-28T12:21:40.557Z,52.30
2018-01-28T12:24:08.162Z,52.90
2018-01-28T12:26:35.770Z,51.90
2018-01-28T12:29:03.380Z,52.90
2018-01-28T12:31:30.976Z,52.90
2018-01-28T12:33:59.341Z,53.30
2018-01-28T12:36:26.944Z,53.30
2018-01-28T12:38:54.516Z,53.30
2018-01-28T12:41:22.106Z,53.10
2018-01-28T12:43:49.690Z,53.10
2018-01-28T12:46:18.053Z,53.90
2018-01-28T12:48:45.636Z,53.90
2018-01-28T12:51:14.001Z,53.70
2018-01-28T12:53:41.591Z,53.60
2018-01-28T12:56:09.195Z,54.40
2018-01-28T12:58:36.803Z,54.10
2018-01-28T13:01:05.177Z,54.90
2018-01-28T13:03:32.782Z,54.90
2018-01-28T13:06:00.385Z,54.40
2018-01-28T13:08:28.796Z,55.60
2018-01-28T13:10:56.392Z,55.60
2018-01-28T13:13:24.031Z,56.30
2018-01-28T13:18:56.929Z,56.00
2018-01-28T13:21:24.480Z,56.70
2018-01-28T13:23:52.060Z,57.00
2018-01-28T13:26:19.634Z,57.60
2018-01-28T13:28:47.242Z,57.40
2018-01-28T13:31:15.643Z,57.40
2018-01-28T13:33:43.230Z,57.30
2018-01-28T13:36:17.026Z,56.90
2018-01-28T13:38:44.658Z,56.60
2018-01-28T13:41:12.258Z,57.00
2018-01-28T13:43:39.870Z,57.30
2018-01-28T13:46:07.443Z,57.80
2018-01-28T13:48:35.023Z,56.90
2018-01-28T13:51:02.668Z,57.10
2018-01-28T13:53:30.259Z,57.70
2018-01-28T13:55:57.832Z,57.20
2018-01-28T13:58:25.380Z,56.80
2018-01-28T14:00:52.997Z,57.30
2018-01-28T14:03:21.346Z,57.90
2018-01-28T14:05:48.956Z,57.90
2018-01-28T14:08:17.309Z,59.00
2018-01-28T14:10:44.942Z,59.00
2018-01-28T14:13:12.503Z,58.30
2018-01-28T14:15:40.046Z,58.30
2018-01-28T14:18:07.620Z,59.20
2018-01-28T14:20:35.221Z,59.40
2018-01-28T14:26:10.015Z,61.00
2018-01-28T14:28:37.605Z,61.00
2018-01-28T14:31:23.293Z,61.20
2018-01-28T14:33:58.514Z,61.10
2018-01-28T14:36:26.100Z,61.10
2018-01-28T14:39:03.424Z,60.80
2018-01-28T14:41:31.208Z,62.50
2018-01-28T14:44:05.600Z,62.50
2018-01-28T14:46:33.186Z,62.30
2018-01-28T14:49:20.235Z,62.60
2018-01-28T14:52:01.455Z,63.70
2018-01-28T14:54:54.304Z,63.70
2018-01-28T14:57:21.908Z,64.40
2018-01-28T14:59:49.473Z,63.80
2018-01-28T15:02:17.125Z,63.80
2018-01-28T15:04:44.722Z,64.20
2018-01-28T15:07:25.143Z,64.50
2018-01-28T15:09:52.726Z,64.40
2018-01-28T15:12:22.087Z,64.70
2018-01-28T15:14:49.727Z,64.70
2018-01-28T15:17:36.401Z,64.80
2018-01-28T15:20:29.272Z,65.00
2018-01-28T15:23:14.013Z,65.00
2018-01-28T15:25:42.392Z,65.20
2018-01-28T15:28:10.728Z,65.20
2018-01-28T15:30:44.233Z,65.90
2018-01-28T15:33:11.874Z,64.90
2018-01-28T15:35:40.234Z,64.80
2018-01-28T15:38:07.796Z,64.70
2018-01-28T15:40:35.379Z,65.00
2018-01-28T15:43:02.976Z,64.80
2018-01-28T15:45:31.362Z,65.30
2018-01-28T15:47:59.727Z,65.30
2018-01-28T15:50:33.110Z,65.20
2018-01-28T15:53:00.740Z,65.50
2018-01-28T15:55:45.463Z,65.70
2018-01-28T15:58:13.881Z,66.00
2018-01-28T16:00:41.495Z,66.00
2018-01-28T16:03:09.910Z,66.20
2018-01-28T16:05:37.504Z,66.10
2018-01-28T16:08:05.146Z,66.60
2018-01-28T16:10:32.752Z,66.90
2018-01-28T16:13:03.591Z,67.20
2018-01-28T16:15:31.946Z,67.60
2018-01-28T16:17:59.548Z,67.60
2018-01-28T16:20:27.126Z,67.70
2018-01-28T16:22:54.784Z,67.80
2018-01-28T16:25:22.392Z,67.90
2018-01-28T16:27:49.944Z,68.30
2018-01-28T16:30:17.526Z,68.50
2018-01-28T16:32:45.895Z,68.90
2018-01-28T16:35:13.521Z,68.90
2018-01-28T16:37:41.130Z,69.70
2018-01-28T16:40:11.487Z,69.40
2018-01-28T16:42:39.061Z,69.30
2018-01-28T16:45:06.683Z,69.50
2018-01-28T16:47:35.035Z,69.90
2018-01-28T16:50:02.637Z,69.80
2018-01-28T16:52:30.246Z,69.80
2018-01-28T16:54:57.838Z,70.00
2018-01-28T16:57:26.218Z,70.40
2018-01-28T16:59:54.582Z,70.20
2018-01-28T17:02:22.941Z,70.20
2018-01-28T17:04:50.537Z,70.20
2018-01-28T17:07:18.183Z,70.20
2018-01-28T17:09:45.782Z,70.10
2018-01-28T17:12:13.417Z,69.80
2018-01-28T17:14:41.796Z,69.90
2018-01-28T17:17:10.177Z,69.80
2018-01-28T17:19:38.559Z,69.60
2018-01-28T17:22:06.129Z,69.60
2018-01-28T17:24:33.695Z,69.60
2018-01-28T17:27:01.340Z,69.50
2018-01-28T17:29:28.963Z,69.30
2018-01-28T17:32:02.251Z,69.60
2018-01-28T17:34:29.861Z,69.60
2018-01-28T17:36:58.202Z,69.80
2018-01-28T17:39:25.829Z,69.80
2018-01-28T17:41:53.433Z,69.60
2018-01-28T17:44:21.787Z,69.20
2018-01-28T17:46:53.015Z,69.20
2018-01-28T17:49:20.694Z,69.20
2018-01-28T17:51:48.294Z,69.20
2018-01-28T17:54:15.929Z,68.80
2018-01-28T17:56:43.591Z,69.10
2018-01-28T17:59:11.202Z,69.30
2018-01-28T18:01:38.824Z,69.60
2018-01-28T18:04:07.187Z,69.60
2018-01-28T18:06:34.808Z,69.60
2018-01-28T18:09:02.424Z,69.60
2018-01-28T18:11:30.842Z,70.00
2018-01-28T18:13:58.470Z,70.00
2018-01-28T18:16:26.093Z,70.30
2018-01-28T18:18:53.744Z,70.10
2018-01-28T18:21:21.394Z,70.40
2018-01-28T18:23:48.991Z,70.10
2018-01-28T18:26:16.611Z,70.30
2018-01-28T18:28:44.203Z,70.30
2018-01-28T18:31:11.822Z,70.10
2018-01-28T18:33:39.423Z,70.00
2018-01-28T18:36:07.051Z,70.30
2018-01-28T18:38:34.659Z,70.30
2018-01-28T18:41:03.034Z,71.80
2018-01-28T18:43:30.637Z,70.90
2018-01-28T18:45:58.201Z,71.70
2018-01-28T18:48:25.842Z,71.30
2018-01-28T18:50:53.472Z,71.50
2018-01-28T18:53:21.122Z,72.00
2018-01-28T18:55:48.732Z,72.80
2018-01-28T18:58:16.341Z,73.10
2018-01-28T19:00:43.922Z,73.60
2018-01-28T19:03:20.563Z,74.50
2018-01-28T19:05:48.249Z,74.50
2018-01-28T19:08:15.826Z,74.80
2018-01-28T19:10:44.267Z,74.70
2018-01-28T19:13:11.859Z,74.60
2018-01-28T19:15:40.257Z,74.60
2018-01-28T19:18:08.652Z,74.50
2018-01-28T19:23:29.181Z,74.10
2018-01-28T19:25:56.823Z,74.40
2018-01-28T19:28:24.419Z,74.40
2018-01-28T19:30:52.011Z,74.70
2018-01-28T19:33:19.643Z,74.90
2018-01-28T19:35:47.261Z,75.90
2018-01-28T19:38:14.859Z,75.90
2018-01-28T19:40:42.446Z,76.10
2018-01-28T19:43:10.051Z,76.70
2018-01-28T19:45:37.639Z,76.80
2018-01-28T19:48:05.208Z,77.00
2018-01-28T19:50:32.835Z,76.80
2018-01-28T19:53:00.426Z,77.10
2018-01-28T19:55:28.106Z,77.40
2018-01-28T19:57:55.663Z,77.90
2018-01-28T20:00:23.282Z,78.30
2018-01-28T20:02:50.901Z,78.50
2018-01-28T20:05:19.303Z,78.10
2018-01-28T20:07:46.903Z,78.00
2018-01-28T20:10:14.626Z,78.00
2018-01-28T20:12:55.121Z,78.10
2018-01-28T20:15:22.816Z,78.30
2018-01-28T20:17:50.432Z,79.30
2018-01-28T20:20:19.782Z,78.50
2018-01-28T20:22:47.372Z,77.70
2018-01-28T20:25:15.750Z,76.60
2018-01-28T20:27:43.369Z,76.70
2018-01-28T20:30:10.970Z,76.50
2018-01-28T20:32:38.578Z,76.40
2018-01-28T20:35:06.204Z,76.40
2018-01-28T20:37:33.838Z,76.70
2018-01-28T20:40:02.206Z,77.30
2018-01-28T20:42:30.622Z,77.50
2018-01-28T20:44:58.997Z,77.70
2018-01-28T20:47:26.557Z,77.70
2018-01-28T20:49:54.166Z,77.80
2018-01-28T20:52:21.753Z,77.90
2018-01-28T20:54:49.445Z,78.40
2018-01-28T20:57:17.069Z,78.30
2018-01-28T20:59:45.449Z,78.90
2018-01-28T21:02:13.813Z,78.90
2018-01-28T21:04:41.435Z,78.80
2018-01-28T21:07:09.088Z,79.00
2018-01-28T21:09:36.732Z,78.80
2018-01-28T21:12:04.324Z,79.50
2018-01-28T21:14:31.955Z,79.80
2018-01-28T21:17:00.355Z,80.00
2018-01-28T21:19:27.946Z,80.00
2018-01-28T21:24:56.102Z,80.00
2018-01-28T21:27:23.697Z,79.90
2018-01-28T21:29:51.360Z,80.80
2018-01-28T21:32:18.981Z,81.70
2018-01-28T21:34:46.532Z,81.80
2018-01-28T21:37:14.152Z,81.00
2018-01-28T21:39:41.811Z,80.70
2018-01-28T21:42:09.450Z,80.60
2018-01-28T21:44:37.063Z,81.10
2018-01-28T21:47:05.474Z,80.70
2018-01-28T21:49:33.039Z,81.30
2018-01-28T21:52:00.590Z,80.50
2018-01-28T21:54:28.231Z,80.90
2018-01-28T21:56:55.820Z,81.30
2018-01-28T21:59:23.463Z,81.20
2018-01-28T22:01:51.030Z,81.10
2018-01-28T22:04:24.617Z,81.10
2018-01-28T22:06:52.255Z,80.70
2018-01-28T22:12:17.232Z,80.30
2018-01-28T22:14:44.853Z,80.20
2018-01-28T22:17:12.501Z,80.30
2018-01-28T22:19:40.096Z,80.70
2018-01-28T22:22:07.659Z,81.40
2018-01-28T22:24:35.312Z,81.80
2018-01-28T22:27:02.915Z,81.80
2018-01-28T22:29:30.582Z,81.80
2018-01-28T22:31:58.217Z,82.90
2018-01-28T22:34:25.786Z,83.00
2018-01-28T22:36:53.419Z,82.70
2018-01-28T22:39:21.015Z,83.00
2018-01-28T22:41:48.610Z,83.80
2018-01-28T22:44:16.234Z,83.90
2018-01-28T22:46:43.900Z,84.30
2018-01-28T22:49:11.510Z,84.40
2018-01-28T22:51:39.165Z,84.70
2018-01-28T22:54:06.759Z,84.20
2018-01-28T22:56:34.354Z,84.20
2018-01-28T22:59:01.955Z,85.30
2018-01-28T23:01:32.327Z,86.20
2018-01-28T23:03:59.930Z,87.00
2018-01-28T23:06:27.479Z,87.00
2018-01-28T23:08:55.886Z,85.90
2018-01-28T23:11:23.526Z,85.90
2018-01-28T23:13:51.086Z,85.70
2018-01-28T23:16:18.710Z,85.90
2018-01-28T23:18:46.319Z,85.70
2018-01-28T23:21:13.932Z,85.40
2018-01-28T23:23:41.519Z,85.60
2018-01-28T23:26:09.130Z,85.50
2018-01-28T23:28:36.729Z,85.30
2018-01-28T23:31:05.115Z,86.00
2018-01-28T23:33:33.467Z,85.70
2018-01-28T23:36:01.100Z,85.70
2018-01-28T23:38:28.704Z,85.40
2018-01-28T23:40:57.077Z,84.70
2018-01-28T23:43:24.678Z,84.60
2018-01-28T23:45:52.266Z,84.10
2018-01-28T23:48:19.819Z,83.80
2018-01-28T23:50:47.426Z,83.70
2018-01-28T23:53:15.763Z,83.30
2018-01-28T23:55:43.375Z,83.10
2018-01-28T23:58:11.761Z,83.40
